createdAt,value
2022-08-08T00:00:55.557Z,24.10
2022-08-08T00:02:45.201Z,24.20
2022-08-08T00:05:17.279Z,24.20
2022-08-08T00:08:06.477Z,24.10
2022-08-08T00:10:45.365Z,24.10
2022-08-08T00:14:12.171Z,24.10
2022-08-08T00:16:24.213Z,24.10
2022-08-08T00:19:18.442Z,24.10
2022-08-08T00:21:56.096Z,24.10
2022-08-08T00:24:34.137Z,24.10
2022-08-08T00:27:08.315Z,24.20
2022-08-08T00:29:48.243Z,24.20
2022-08-08T00:32:35.313Z,24.10
2022-08-08T00:35:29.904Z,24.20
2022-08-08T00:38:17.051Z,24.20
2022-08-08T00:41:22.182Z,24.20
2022-08-08T00:44:41.861Z,24.20
2022-08-08T00:48:05.443Z,24.20
2022-08-08T00:50:56.494Z,24.20
2022-08-08T00:53:43.731Z,24.20
2022-08-08T00:56:50.999Z,24.10
2022-08-08T00:59:43.693Z,24.10
2022-08-08T01:03:58.316Z,24.10
2022-08-08T01:06:40.048Z,24.10
2022-08-08T01:09:48.685Z,24.00
2022-08-08T01:12:29.754Z,24.00
2022-08-08T01:15:43.963Z,23.90
2022-08-08T01:18:53.045Z,23.90
2022-08-08T01:22:12.046Z,23.90
2022-08-08T01:25:16.805Z,23.90
2022-08-08T01:28:28.107Z,23.90
2022-08-08T01:31:23.715Z,23.90
2022-08-08T01:34:28.853Z,23.90
2022-08-08T01:37:17.411Z,23.80
2022-08-08T01:40:22.007Z,23.80
2022-08-08T01:43:25.323Z,23.70
2022-08-08T01:46:30.986Z,23.70
2022-08-08T01:49:37.585Z,23.70
2022-08-08T01:54:04.135Z,23.60
2022-08-08T01:55:26.861Z,23.60
2022-08-08T01:58:38.455Z,23.60
2022-08-08T02:01:28.063Z,23.60
2022-08-08T02:04:28.802Z,23.60
2022-08-08T02:07:18.342Z,23.60
2022-08-08T02:10:12.428Z,23.60
2022-08-08T02:12:55.658Z,23.60
2022-08-08T02:15:43.414Z,23.60
2022-08-08T02:18:38.350Z,23.50
2022-08-08T02:21:49.000Z,23.50
2022-08-08T02:24:26.344Z,23.50
2022-08-08T02:27:17.918Z,23.60
2022-08-08T02:29:57.638Z,23.60
2022-08-08T02:32:45.146Z,23.60
2022-08-08T02:36:04.306Z,23.60
2022-08-08T02:38:44.813Z,23.60
2022-08-08T02:41:58.943Z,23.50
2022-08-08T02:44:57.041Z,23.30
2022-08-08T02:47:26.858Z,23.20
2022-08-08T02:50:31.499Z,23.20
2022-08-08T02:53:24.068Z,23.00
2022-08-08T02:56:15.424Z,23.00
2022-08-08T02:59:37.000Z,22.90
2022-08-08T03:02:20.435Z,23.00
2022-08-08T03:05:46.354Z,23.00
2022-08-08T03:08:51.679Z,23.00
2022-08-08T03:12:03.072Z,23.10
2022-08-08T03:15:58.110Z,23.10
2022-08-08T03:18:04.649Z,23.20
2022-08-08T03:20:51.828Z,23.10
2022-08-08T03:23:30.401Z,23.20
2022-08-08T03:26:07.854Z,23.20
2022-08-08T03:28:51.432Z,23.20
2022-08-08T03:32:05.936Z,23.20
2022-08-08T03:34:30.439Z,23.20
2022-08-08T03:36:59.185Z,23.20
2022-08-08T03:39:26.968Z,23.20
2022-08-08T03:42:12.593Z,23.20
2022-08-08T03:44:47.844Z,23.20
2022-08-08T03:47:25.754Z,23.20
2022-08-08T03:50:20.128Z,23.30
2022-08-08T03:52:48.668Z,23.30
2022-08-08T03:55:56.792Z,23.30
2022-08-08T03:58:30.462Z,23.30
2022-08-08T04:01:23.619Z,23.30
2022-08-08T04:03:59.239Z,23.30
2022-08-08T04:06:32.375Z,23.30
2022-08-08T04:09:10.595Z,23.30
2022-08-08T04:11:57.726Z,23.30
2022-08-08T04:14:36.243Z,23.30
2022-08-08T04:17:15.417Z,23.40
2022-08-08T04:19:50.674Z,23.40
2022-08-08T04:22:24.090Z,23.50
2022-08-08T04:24:53.785Z,23.50
2022-08-08T04:28:03.609Z,23.60
2022-08-08T04:30:18.392Z,23.60
2022-08-08T04:32:50.290Z,23.70
2022-08-08T04:35:22.819Z,23.80
2022-08-08T04:37:53.875Z,23.80
2022-08-08T04:40:26.191Z,24.00
2022-08-08T04:43:00.984Z,24.10
2022-08-08T04:45:51.970Z,24.20
2022-08-08T04:48:21.754Z,24.20
2022-08-08T04:50:50.728Z,24.40
2022-08-08T04:54:36.572Z,24.40
2022-08-08T04:56:19.567Z,24.50
2022-08-08T04:58:48.464Z,24.50
2022-08-08T05:01:19.280Z,24.40
2022-08-08T05:04:08.210Z,24.40
2022-08-08T05:06:42.275Z,24.40
2022-08-08T05:09:11.744Z,24.40
2022-08-08T05:11:42.974Z,24.40
2022-08-08T05:14:16.052Z,24.40
2022-08-08T05:16:55.396Z,24.40
2022-08-08T05:20:10.731Z,24.40
2022-08-08T05:22:21.756Z,24.50
2022-08-08T05:24:51.623Z,24.50
2022-08-08T05:27:22.156Z,24.50
2022-08-08T05:29:52.634Z,24.60
2022-08-08T05:32:33.107Z,24.70
2022-08-08T05:35:05.606Z,24.70
2022-08-08T05:37:53.360Z,24.90
2022-08-08T05:40:30.014Z,25.00
2022-08-08T05:43:38.871Z,25.20
2022-08-08T05:46:07.920Z,25.30
2022-08-08T05:48:41.710Z,25.30
2022-08-08T05:51:14.509Z,25.50
2022-08-08T05:54:24.321Z,25.70
2022-08-08T05:56:42.242Z,25.80
2022-08-08T05:59:59.684Z,25.80
2022-08-08T06:02:41.009Z,25.90
2022-08-08T06:05:34.627Z,26.20
2022-08-08T06:08:28.330Z,26.80
2022-08-08T06:11:00.400Z,27.30
2022-08-08T06:13:36.385Z,27.70
2022-08-08T06:16:18.821Z,27.90
2022-08-08T06:19:04.006Z,28.10
2022-08-08T06:21:51.808Z,28.10
2022-08-08T06:24:35.879Z,28.30
2022-08-08T06:27:12.175Z,28.20
2022-08-08T06:30:55.722Z,28.20
2022-08-08T06:34:26.636Z,28.10
2022-08-08T06:38:01.503Z,28.50
2022-08-08T06:40:48.544Z,28.90
2022-08-08T06:43:58.773Z,29.20
2022-08-08T06:47:03.592Z,29.10
2022-08-08T06:50:31.946Z,28.90
2022-08-08T06:53:39.374Z,28.80
2022-08-08T06:56:51.363Z,28.90
2022-08-08T07:04:37.969Z,28.70
2022-08-08T07:07:21.143Z,28.50
2022-08-08T07:11:50.806Z,28.50
2022-08-08T07:16:11.849Z,28.50
2022-08-08T07:27:04.851Z,28.40
2022-08-08T07:35:00.538Z,28.90
2022-08-08T07:38:32.521Z,28.80
2022-08-08T07:49:17.235Z,29.00
2022-08-08T07:52:57.598Z,29.00
2022-08-08T08:00:54.155Z,29.30
2022-08-08T08:19:15.458Z,30.10
2022-08-08T08:22:38.491Z,30.40
2022-08-08T08:26:52.431Z,30.90
2022-08-08T08:38:58.716Z,32.30
2022-08-08T09:12:16.757Z,33.20
2022-08-08T09:34:45.569Z,32.40
2022-08-08T09:42:23.151Z,32.30
2022-08-08T10:16:05.738Z,33.50
2022-08-08T10:41:20.667Z,34.80
2022-08-08T10:48:13.026Z,36.10
2022-08-08T11:23:43.653Z,34.50
2022-08-08T11:35:47.418Z,33.90
2022-08-08T12:13:21.299Z,31.80
2022-08-08T12:16:13.544Z,31.60
2022-08-08T12:18:57.053Z,31.50
2022-08-08T12:21:58.649Z,31.40
2022-08-08T12:24:27.919Z,31.30
2022-08-08T12:26:58.301Z,31.10
2022-08-08T12:29:42.061Z,31.10
2022-08-08T12:32:19.626Z,31.20
2022-08-08T12:35:04.826Z,31.10
2022-08-08T12:38:01.093Z,31.10
2022-08-08T12:40:56.696Z,30.80
2022-08-08T12:43:32.807Z,30.80
2022-08-08T12:46:25.178Z,30.70
2022-08-08T12:49:22.029Z,30.70
2022-08-08T12:51:49.824Z,30.60
2022-08-08T12:54:29.768Z,30.70
2022-08-08T12:57:01.037Z,30.70
2022-08-08T12:59:45.029Z,30.60
2022-08-08T13:02:29.875Z,30.60
2022-08-08T13:05:00.169Z,30.60
2022-08-08T13:08:01.964Z,30.70
2022-08-08T13:10:36.449Z,30.80
2022-08-08T13:13:28.317Z,31.00
2022-08-08T13:16:25.321Z,31.20
2022-08-08T13:19:09.336Z,31.20
2022-08-08T13:21:53.652Z,31.20
2022-08-08T13:24:40.536Z,31.30
2022-08-08T13:27:18.899Z,31.30
2022-08-08T13:29:58.332Z,31.50
2022-08-08T13:32:28.587Z,31.50
2022-08-08T13:34:58.873Z,31.40
2022-08-08T13:38:04.973Z,31.50
2022-08-08T13:40:26.523Z,31.50
2022-08-08T13:42:56.325Z,31.50
2022-08-08T13:45:26.271Z,31.50
2022-08-08T13:48:01.213Z,31.40
2022-08-08T13:50:34.611Z,31.40
2022-08-08T13:53:25.163Z,31.40
2022-08-08T13:56:02.183Z,31.40
2022-08-08T13:58:33.287Z,31.50
2022-08-08T14:01:17.016Z,31.50
2022-08-08T14:03:56.832Z,31.50
2022-08-08T14:06:32.889Z,31.50
2022-08-08T14:09:24.755Z,31.40
2022-08-08T14:11:49.866Z,31.40
2022-08-08T14:14:21.003Z,31.60
2022-08-08T14:16:53.694Z,31.80
2022-08-08T14:19:57.699Z,32.00
2022-08-08T14:22:27.446Z,32.00
2022-08-08T14:25:07.690Z,31.90
2022-08-08T14:27:37.707Z,32.00
2022-08-08T14:30:17.856Z,32.00
2022-08-08T14:32:53.169Z,32.10
2022-08-08T14:35:35.196Z,32.20
2022-08-08T14:38:51.415Z,32.30
2022-08-08T14:40:59.060Z,32.30
2022-08-08T14:44:02.533Z,32.40
2022-08-08T14:46:17.404Z,32.40
2022-08-08T14:48:57.057Z,32.40
2022-08-08T14:51:47.222Z,32.40
2022-08-08T14:54:29.282Z,32.40
2022-08-08T14:56:58.358Z,32.30
2022-08-08T14:59:43.979Z,32.20
2022-08-08T15:02:15.654Z,32.20
2022-08-08T15:04:45.586Z,32.20
2022-08-08T15:07:24.191Z,32.20
2022-08-08T15:10:01.448Z,32.20
2022-08-08T15:12:30.196Z,32.30
2022-08-08T15:14:58.551Z,32.20
2022-08-08T15:17:27.704Z,32.10
2022-08-08T15:19:55.607Z,31.90
2022-08-08T15:22:24.075Z,31.80
2022-08-08T15:24:52.106Z,31.80
2022-08-08T15:28:04.165Z,31.70
2022-08-08T15:30:12.632Z,31.60
2022-08-08T15:32:43.286Z,31.70
2022-08-08T15:35:11.588Z,31.60
2022-08-08T15:37:44.267Z,31.70
2022-08-08T15:40:15.474Z,31.70
2022-08-08T15:42:49.540Z,31.70
2022-08-08T15:45:18.108Z,31.80
2022-08-08T15:47:57.502Z,31.80
2022-08-08T15:50:57.978Z,31.80
2022-08-08T15:53:28.297Z,31.80
2022-08-08T15:56:13.139Z,31.80
2022-08-08T15:58:46.065Z,31.90
2022-08-08T16:01:17.486Z,32.00
2022-08-08T16:03:48.156Z,31.90
2022-08-08T16:06:27.584Z,31.90
2022-08-08T16:09:02.310Z,31.90
2022-08-08T16:13:14.267Z,31.80
2022-08-08T16:14:37.052Z,31.70
2022-08-08T16:17:06.285Z,31.60
2022-08-08T16:19:59.525Z,31.60
2022-08-08T16:22:30.229Z,31.60
2022-08-08T16:24:58.993Z,31.50
2022-08-08T16:27:36.944Z,31.50
2022-08-08T16:30:08.121Z,31.40
2022-08-08T16:32:42.365Z,31.40
2022-08-08T16:35:10.664Z,31.40
2022-08-08T16:37:47.277Z,31.40
2022-08-08T16:40:17.512Z,31.40
2022-08-08T16:42:51.610Z,31.50
2022-08-08T16:46:44.743Z,31.40
2022-08-08T16:48:09.809Z,31.40
2022-08-08T16:50:41.278Z,31.30
2022-08-08T16:55:01.404Z,31.30
2022-08-08T16:56:00.532Z,31.30
2022-08-08T16:58:34.181Z,31.20
2022-08-08T17:01:11.313Z,31.10
2022-08-08T17:04:00.700Z,31.10
2022-08-08T17:06:36.127Z,31.10
2022-08-08T17:09:05.515Z,31.10
2022-08-08T17:11:48.135Z,31.10
2022-08-08T17:14:27.387Z,31.10
2022-08-08T17:17:03.901Z,31.10
2022-08-08T17:19:40.771Z,31.00
2022-08-08T17:22:10.467Z,31.00
2022-08-08T17:24:40.667Z,31.00
2022-08-08T17:27:08.802Z,31.00
2022-08-08T17:29:43.642Z,31.00
2022-08-08T17:32:28.808Z,31.00
2022-08-08T17:35:53.508Z,30.90
2022-08-08T17:37:55.831Z,30.90
2022-08-08T17:40:35.169Z,30.80
2022-08-08T17:43:03.182Z,30.70
2022-08-08T17:45:32.806Z,30.70
2022-08-08T17:48:05.021Z,30.70
2022-08-08T17:50:37.051Z,30.60
2022-08-08T17:53:05.248Z,30.60
2022-08-08T17:56:03.915Z,30.50
2022-08-08T17:58:27.605Z,30.50
2022-08-08T18:00:57.206Z,30.40
2022-08-08T18:03:25.524Z,30.30
2022-08-08T18:05:53.616Z,30.20
2022-08-08T18:08:25.368Z,30.10
2022-08-08T18:11:16.238Z,30.00
2022-08-08T18:13:46.433Z,29.90
2022-08-08T18:16:17.023Z,29.80
2022-08-08T18:18:53.851Z,29.80
2022-08-08T18:21:58.735Z,29.70
2022-08-08T18:24:19.176Z,29.70
2022-08-08T18:26:54.407Z,29.60
2022-08-08T18:29:29.822Z,29.50
2022-08-08T18:32:05.512Z,29.40
2022-08-08T18:34:37.688Z,29.30
2022-08-08T18:37:06.643Z,29.20
2022-08-08T18:39:38.597Z,29.20
2022-08-08T18:42:14.396Z,29.10
2022-08-08T18:44:52.726Z,29.10
2022-08-08T18:47:23.963Z,29.00
2022-08-08T18:49:58.628Z,29.00
2022-08-08T18:52:29.742Z,29.00
2022-08-08T18:54:59.322Z,29.00
2022-08-08T18:57:31.645Z,28.90
2022-08-08T19:00:03.053Z,28.80
2022-08-08T19:02:30.677Z,28.80
2022-08-08T19:04:58.751Z,28.80
2022-08-08T19:07:29.543Z,28.70
2022-08-08T19:10:14.875Z,28.70
2022-08-08T19:12:44.646Z,28.70
2022-08-08T19:15:21.777Z,28.60
2022-08-08T19:18:30.716Z,28.50
2022-08-08T19:20:42.896Z,28.50
2022-08-08T19:23:11.914Z,28.50
2022-08-08T19:26:19.697Z,28.50
2022-08-08T19:28:30.123Z,28.60
2022-08-08T19:31:04.141Z,28.60
2022-08-08T19:33:39.723Z,28.50
2022-08-08T19:36:25.196Z,28.50
2022-08-08T19:38:57.260Z,28.50
2022-08-08T19:41:33.426Z,28.50
2022-08-08T19:44:03.468Z,28.50
2022-08-08T20:35:56.911Z,27.60
2022-08-08T20:54:27.465Z,27.40
2022-08-08T21:24:23.987Z,27.20
2022-08-08T21:32:01.672Z,27.00
2022-08-08T21:36:16.066Z,27.00
2022-08-08T21:48:06.099Z,27.10
2022-08-08T21:54:18.340Z,27.10
2022-08-08T21:56:32.259Z,27.00
2022-08-08T22:02:55.012Z,27.00
2022-08-08T22:10:32.353Z,26.90
2022-08-08T22:29:04.770Z,26.90
2022-08-08T22:31:58.511Z,26.80
2022-08-08T22:39:06.598Z,26.80
